Euro IV — IQNH — position and weather

sailwx.info

Track history (hours):
 
Tides and Currents Weather Stations Pressure Air Temp Water Temp Dewpoint Dewpoint Depression Visibility Wind Speed Wind Dir Waves Ship Positions

Euro IV

Last reported at 2016-Jun-27 17:15 UTC. Time now 2016-Jun-27 20:33 UTC.
Position N 44°06' E 009°50'.

Length 25 m; draft 1.3 m.

Type: Passenger vessel. MMSI: 247131500.

Date/timePositionNaut miles runAvg speedWind from/ knotsBaromVisibWave heightAir tempDewpointWater temp
2016-Jun-27 17:15N 44°06' E 009°50'6 8.3
2016-Jun-27 16:33N 44°06' E 009°42'1 1.0
2016-Jun-27 15:32N 44°07' E 009°41'8 7.8
2016-Jun-27 14:33N 44°03' E 009°50'0 0.3
2016-Jun-27 13:33N 44°03' E 009°51'0 0.0
2016-Jun-27 12:33N 44°03' E 009°51'0 0.3
2016-Jun-27 11:33N 44°03' E 009°50'7 7.1
2016-Jun-27 10:33N 44°07' E 009°42'9 9.5
2016-Jun-27 09:33N 44°04' E 009°54'2 1.8
2016-Jun-27 08:33N 44°05' E 009°52'2 0.1
2016-Jun-26 17:22N 44°06' E 009°50'3 3.9
2016-Jun-26 16:34N 44°03' E 009°49'9 8.9
2016-Jun-26 15:33N 44°09' E 009°39'4 4.4
2016-Jun-26 14:32N 44°06' E 009°44'5 5.3
2016-Jun-26 13:33N 44°03' E 009°50'0 0.0
2016-Jun-26 12:34N 44°03' E 009°50'0 0.0
2016-Jun-26 11:34N 44°03' E 009°50'10 7.8
2016-Jun-26 10:20N 44°09' E 009°39'0 0.0
2016-Jun-26 09:23N 44°09' E 009°39'1011.7
2016-Jun-26 08:34N 44°03' E 009°51'3 3.0
2016-Jun-26 07:34N 44°06' E 009°50'0 0.0
2016-Jun-24 16:23N 44°06' E 009°50'3 4.0
2016-Jun-24 15:34N 44°04' E 009°46'6 6.2
2016-Jun-24 14:33N 44°09' E 009°39'5 4.1
2016-Jun-24 13:27N 44°06' E 009°44'5 5.8
2016-Jun-24 12:33N 44°03' E 009°50'0 0.0
2016-Jun-24 11:33N 44°03' E 009°50'4 3.8
2016-Jun-24 10:34N 44°05' E 009°45'5 4.4
2016-Jun-24 09:29N 44°08' E 009°41'8 9.0
2016-Jun-24 08:34N 44°03' E 009°50'3 3.1
2016-Jun-24 07:34N 44°06' E 009°50'0 0.0
2016-Jun-23 15:20N 44°06' E 009°50'3 3.7
2016-Jun-23 14:33N 44°04' E 009°48'8 8.0
2016-Jun-23 13:33N 44°09' E 009°39'4 3.9
2016-Jun-23 12:29N 44°06' E 009°44'4 4.5
2016-Jun-23 11:34N 44°09' E 009°39'2 1.9
2016-Jun-23 10:33N 44°08' E 009°41'8 7.8
2016-Jun-23 09:33N 44°03' E 009°50'5 5.3
2016-Jun-23 08:33N 44°05' E 009°44'2 2.5
2016-Jun-23 07:33N 44°07' E 009°41'10 0.6
2016-Jun-22 16:33N 44°05' E 009°54'3 3.2
2016-Jun-22 15:33N 44°03' E 009°50'1 1.2
2016-Jun-22 14:33N 44°04' E 009°52'2 1.5
2016-Jun-22 13:33N 44°02' E 009°50'2 1.8
2016-Jun-22 12:33N 44°04' E 009°52'2 2.0
2016-Jun-22 11:33N 44°04' E 009°55'4 3.7
2016-Jun-22 10:33N 44°02' E 009°50'1 0.6
2016-Jun-22 09:33N 44°03' E 009°50'0 0.0
2016-Jun-22 08:33N 44°03' E 009°50'3 3.4
2016-Jun-22 07:33N 44°04' E 009°54'4 3.9
2016-Jun-22 06:33N 44°06' E 009°50'2 0.1
2016-Jun-21 15:34N 44°05' E 009°51'2 1.8
2016-Jun-21 14:33N 44°03' E 009°50'6 5.6
2016-Jun-21 13:30N 44°06' E 009°43'4 4.0
2016-Jun-21 12:33N 44°09' E 009°39'0 0.0
2016-Jun-21 11:33N 44°09' E 009°39'0 0.0
2016-Jun-21 10:33N 44°09' E 009°39'5 4.5
2016-Jun-21 09:32N 44°06' E 009°44'1 0.6
2016-Jun-21 08:33N 44°05' E 009°44'5 4.5
2016-Jun-21 07:33N 44°06' E 009°50'0 0.0
2016-Jun-20 16:15N 44°06' E 009°50'4 5.4
2016-Jun-20 15:34N 44°05' E 009°45'5 5.4
2016-Jun-20 14:33N 44°09' E 009°39'4 4.2
2016-Jun-20 13:30N 44°06' E 009°44'5 5.6
2016-Jun-20 12:33N 44°03' E 009°50'0 0.0
2016-Jun-20 11:33N 44°03' E 009°50'1 1.5
2016-Jun-20 10:34N 44°03' E 009°48'8 8.0
2016-Jun-20 09:34N 44°08' E 009°39'4 4.4
2016-Jun-20 08:34N 44°05' E 009°44'5 5.3
2016-Jun-20 07:34N 44°04' E 009°51'2 2.1
2016-Jun-20 06:34N 44°06' E 009°50'3 0.2
2016-Jun-19 16:33N 44°03' E 009°50'9 9.3
2016-Jun-19 15:32N 44°08' E 009°39'4 4.2
2016-Jun-19 14:31N 44°06' E 009°44'5 5.4
2016-Jun-19 13:33N 44°03' E 009°50'0 0.0
2016-Jun-19 12:33N 44°03' E 009°50'0 0.0
2016-Jun-19 11:33N 44°03' E 009°50'8 7.8
2016-Jun-19 10:29N 44°08' E 009°41'1 1.3
2016-Jun-19 09:33N 44°09' E 009°39'8 8.0
2016-Jun-19 08:34N 44°04' E 009°48'3 2.9
2016-Jun-19 07:34N 44°06' E 009°49'0 0.0
2016-Jun-19 06:34N 44°06' E 009°49'2 0.1
2016-Jun-18 14:33N 44°05' E 009°51'3 3.5
2016-Jun-18 13:33N 44°04' E 009°46'7 6.6
2016-Jun-18 12:33N 44°09' E 009°39'2 0.9
2016-Jun-18 10:31N 44°09' E 009°37'6 6.2
2016-Jun-18 09:32N 44°06' E 009°44'8 7.9
2016-Jun-18 08:33N 44°04' E 009°55'0 0.2
2016-Jun-18 07:33N 44°05' E 009°54'4 3.6
2016-Jun-18 06:33N 44°06' E 009°50'  
Track history (hours):
 
Tides and Currents Weather Stations Pressure Air Temp Water Temp Dewpoint Dewpoint Depression Visibility Wind Speed Wind Dir Waves Ship Positions

Euro IV

Last reported at 2016-Jun-27 17:15 UTC. Time now 2016-Jun-27 20:33 UTC.
Position N 44°06' E 009°50'.

Length 25 m; draft 1.3 m.

Type: Passenger vessel. MMSI: 247131500.

Date/timePositionNaut miles runAvg speedWind from/ knotsBaromVisibWave heightAir tempDewpointWater temp
2016-Jun-27 17:15N 44°06' E 009°50'6 8.3
2016-Jun-27 16:33N 44°06' E 009°42'1 1.0
2016-Jun-27 15:32N 44°07' E 009°41'8 7.8
2016-Jun-27 14:33N 44°03' E 009°50'0 0.3
2016-Jun-27 13:33N 44°03' E 009°51'0 0.0
2016-Jun-27 12:33N 44°03' E 009°51'0 0.3
2016-Jun-27 11:33N 44°03' E 009°50'7 7.1
2016-Jun-27 10:33N 44°07' E 009°42'9 9.5
2016-Jun-27 09:33N 44°04' E 009°54'2 1.8
2016-Jun-27 08:33N 44°05' E 009°52'2 0.1
2016-Jun-26 17:22N 44°06' E 009°50'3 3.9
2016-Jun-26 16:34N 44°03' E 009°49'9 8.9
2016-Jun-26 15:33N 44°09' E 009°39'4 4.4
2016-Jun-26 14:32N 44°06' E 009°44'5 5.3
2016-Jun-26 13:33N 44°03' E 009°50'0 0.0
2016-Jun-26 12:34N 44°03' E 009°50'0 0.0
2016-Jun-26 11:34N 44°03' E 009°50'10 7.8
2016-Jun-26 10:20N 44°09' E 009°39'0 0.0
2016-Jun-26 09:23N 44°09' E 009°39'1011.7
2016-Jun-26 08:34N 44°03' E 009°51'3 3.0
2016-Jun-26 07:34N 44°06' E 009°50'0 0.0
2016-Jun-24 16:23N 44°06' E 009°50'3 4.0
2016-Jun-24 15:34N 44°04' E 009°46'6 6.2
2016-Jun-24 14:33N 44°09' E 009°39'5 4.1
2016-Jun-24 13:27N 44°06' E 009°44'5 5.8
2016-Jun-24 12:33N 44°03' E 009°50'0 0.0
2016-Jun-24 11:33N 44°03' E 009°50'4 3.8
2016-Jun-24 10:34N 44°05' E 009°45'5 4.4
2016-Jun-24 09:29N 44°08' E 009°41'8 9.0
2016-Jun-24 08:34N 44°03' E 009°50'3 3.1
2016-Jun-24 07:34N 44°06' E 009°50'0 0.0
2016-Jun-23 15:20N 44°06' E 009°50'3 3.7
2016-Jun-23 14:33N 44°04' E 009°48'8 8.0
2016-Jun-23 13:33N 44°09' E 009°39'4 3.9
2016-Jun-23 12:29N 44°06' E 009°44'4 4.5
2016-Jun-23 11:34N 44°09' E 009°39'2 1.9
2016-Jun-23 10:33N 44°08' E 009°41'8 7.8
2016-Jun-23 09:33N 44°03' E 009°50'5 5.3
2016-Jun-23 08:33N 44°05' E 009°44'2 2.5
2016-Jun-23 07:33N 44°07' E 009°41'10 0.6
2016-Jun-22 16:33N 44°05' E 009°54'3 3.2
2016-Jun-22 15:33N 44°03' E 009°50'1 1.2
2016-Jun-22 14:33N 44°04' E 009°52'2 1.5
2016-Jun-22 13:33N 44°02' E 009°50'2 1.8
2016-Jun-22 12:33N 44°04' E 009°52'2 2.0
2016-Jun-22 11:33N 44°04' E 009°55'4 3.7
2016-Jun-22 10:33N 44°02' E 009°50'1 0.6
2016-Jun-22 09:33N 44°03' E 009°50'0 0.0
2016-Jun-22 08:33N 44°03' E 009°50'3 3.4
2016-Jun-22 07:33N 44°04' E 009°54'4 3.9
2016-Jun-22 06:33N 44°06' E 009°50'2 0.1
2016-Jun-21 15:34N 44°05' E 009°51'2 1.8
2016-Jun-21 14:33N 44°03' E 009°50'6 5.6
2016-Jun-21 13:30N 44°06' E 009°43'4 4.0
2016-Jun-21 12:33N 44°09' E 009°39'0 0.0
2016-Jun-21 11:33N 44°09' E 009°39'0 0.0
2016-Jun-21 10:33N 44°09' E 009°39'5 4.5
2016-Jun-21 09:32N 44°06' E 009°44'1 0.6
2016-Jun-21 08:33N 44°05' E 009°44'5 4.5
2016-Jun-21 07:33N 44°06' E 009°50'0 0.0
2016-Jun-20 16:15N 44°06' E 009°50'4 5.4
2016-Jun-20 15:34N 44°05' E 009°45'5 5.4
2016-Jun-20 14:33N 44°09' E 009°39'4 4.2
2016-Jun-20 13:30N 44°06' E 009°44'5 5.6
2016-Jun-20 12:33N 44°03' E 009°50'0 0.0
2016-Jun-20 11:33N 44°03' E 009°50'1 1.5
2016-Jun-20 10:34N 44°03' E 009°48'8 8.0
2016-Jun-20 09:34N 44°08' E 009°39'4 4.4
2016-Jun-20 08:34N 44°05' E 009°44'5 5.3
2016-Jun-20 07:34N 44°04' E 009°51'2 2.1
2016-Jun-20 06:34N 44°06' E 009°50'3 0.2
2016-Jun-19 16:33N 44°03' E 009°50'9 9.3
2016-Jun-19 15:32N 44°08' E 009°39'4 4.2
2016-Jun-19 14:31N 44°06' E 009°44'5 5.4
2016-Jun-19 13:33N 44°03' E 009°50'0 0.0
2016-Jun-19 12:33N 44°03' E 009°50'0 0.0
2016-Jun-19 11:33N 44°03' E 009°50'8 7.8
2016-Jun-19 10:29N 44°08' E 009°41'1 1.3
2016-Jun-19 09:33N 44°09' E 009°39'8 8.0
2016-Jun-19 08:34N 44°04' E 009°48'3 2.9
2016-Jun-19 07:34N 44°06' E 009°49'0 0.0
2016-Jun-19 06:34N 44°06' E 009°49'2 0.1
2016-Jun-18 14:33N 44°05' E 009°51'3 3.5
2016-Jun-18 13:33N 44°04' E 009°46'7 6.6
2016-Jun-18 12:33N 44°09' E 009°39'2 0.9
2016-Jun-18 10:31N 44°09' E 009°37'6 6.2
2016-Jun-18 09:32N 44°06' E 009°44'8 7.9
2016-Jun-18 08:33N 44°04' E 009°55'0 0.2
2016-Jun-18 07:33N 44°05' E 009°54'4 3.6
2016-Jun-18 06:33N 44°06' E 009°50'  

Dump ship's entire track history